Time;durP1;ratioP1;P1;durP2;ratioP2;P2;SDS_P1;SDS_P2;PMS_P1;PMS_P2;Temp;Humidity;BMP_temperature;BMP_pressure;BME280_temperature;BME280_humidity;BME280_pressure;Samples;Min_cycle;Max_cycle;Signal;HPM_P1;HPM_P2
2021/06/22 00:00:38;;;;;;;17.95;7.78;;;;;;;18.75;69.46;100409.13;4821082;29;20064;-80
2021/06/22 00:03:04;;;;;;;14.10;6.25;;;;;;;18.63;69.69;100405.13;4865517;29;20132;-78
2021/06/22 00:05:32;;;;;;;12.00;6.32;;;;;;;18.44;69.64;100370.59;4835639;29;20048;-78
2021/06/22 00:07:58;;;;;;;11.13;6.50;;;;;;;18.64;69.42;100410.38;4853006;29;20150;-79
2021/06/22 00:10:26;;;;;;;11.02;6.00;;;;;;;18.47;69.61;100388.94;4854299;29;20466;-79
2021/06/22 00:12:53;;;;;;;9.50;7.25;;;;;;;18.64;69.56;100428.81;4851385;29;20109;-81
2021/06/22 00:15:22;;;;;;;14.55;8.15;;;;;;;18.62;69.87;100425.34;4864392;29;20526;-79
2021/06/22 00:17:49;;;;;;;14.05;8.52;;;;;;;18.54;69.85;100416.81;4845636;29;20045;-80
2021/06/22 00:20:17;;;;;;;11.10;7.38;;;;;;;18.39;70.14;100390.97;4860797;29;20104;-81
2021/06/22 00:22:44;;;;;;;11.82;7.75;;;;;;;18.64;69.98;100431.44;4845700;29;20042;-79
2021/06/22 00:25:12;;;;;;;12.65;7.38;;;;;;;18.53;70.13;100417.75;4861946;29;20096;-80
2021/06/22 00:27:39;;;;;;;14.15;8.25;;;;;;;18.59;70.38;100424.56;4862367;29;20064;-79
2021/06/22 00:30:08;;;;;;;11.73;7.82;;;;;;;18.63;70.41;100429.72;4845412;29;20045;-80
2021/06/22 00:32:34;;;;;;;11.85;7.90;;;;;;;18.39;70.42;100383.94;4861562;29;20041;-79
2021/06/22 00:35:00;;;;;;;13.45;7.82;;;;;;;18.72;70.46;100435.59;4861004;29;20045;-82
2021/06/22 00:37:28;;;;;;;10.45;7.15;;;;;;;18.77;70.58;100438.94;4860918;29;20177;-83
2021/06/22 00:39:53;;;;;;;12.30;7.43;;;;;;;18.79;70.35;100443.22;4859902;29;20117;-81
2021/06/22 00:42:19;;;;;;;10.18;8.43;;;;;;;18.60;70.56;100411.38;4864974;29;20136;-79
2021/06/22 00:44:51;;;;;;;18.38;8.10;;;;;;;18.81;70.62;100440.56;4844641;29;20529;-80
2021/06/22 00:47:17;;;;;;;16.75;7.43;;;;;;;18.75;70.43;100436.38;4844313;29;20041;-80
2021/06/22 00:49:51;;;;;;;12.45;7.50;;;;;;;18.70;70.34;100453.22;4845170;29;20569;-81
2021/06/22 00:52:22;;;;;;;16.85;7.57;;;;;;;18.66;70.50;100440.13;4843976;29;20070;-80
2021/06/22 00:54:49;;;;;;;12.40;7.57;;;;;;;18.47;70.35;100417.94;4844378;29;20569;-80
2021/06/22 00:57:15;;;;;;;13.40;8.07;;;;;;;18.55;70.37;100437.00;4828756;29;20050;-81
2021/06/22 00:59:42;;;;;;;14.73;7.45;;;;;;;18.54;70.43;100427.38;4843802;29;20049;-83
2021/06/22 01:02:09;;;;;;;13.05;7.05;;;;;;;18.53;70.16;100433.56;4828964;29;20053;-79
2021/06/22 01:04:36;;;;;;;15.38;6.85;;;;;;;18.57;70.10;100445.72;4858747;29;20040;-83
2021/06/22 01:07:24;;;;;;;16.73;6.78;;;;;;;18.56;70.03;100446.63;4856964;29;20057;-83
2021/06/22 01:09:50;;;;;;;13.77;6.45;;;;;;;18.54;69.79;100440.53;4841850;29;20076;-83
2021/06/22 01:12:18;;;;;;;14.52;6.97;;;;;;;18.04;69.75;100367.47;4843555;29;20057;-80
2021/06/22 01:14:46;;;;;;;16.98;7.88;;;;;;;18.52;69.80;100445.00;4826400;29;20057;-79
2021/06/22 01:17:13;;;;;;;14.18;6.68;;;;;;;18.36;69.79;100426.16;4856202;29;20047;-83
2021/06/22 01:19:39;;;;;;;10.48;6.72;;;;;;;18.52;69.47;100445.00;4844428;29;20076;-80
2021/06/22 01:22:06;;;;;;;9.40;6.70;;;;;;;18.53;69.61;100454.63;4860910;29;20060;-80
2021/06/22 01:24:42;;;;;;;11.35;6.43;;;;;;;18.42;69.44;100427.78;4844928;29;20080;-81
2021/06/22 01:27:09;;;;;;;14.95;7.00;;;;;;;18.50;69.43;100441.53;4852777;29;20041;-78
2021/06/22 01:29:35;;;;;;;19.08;7.47;;;;;;;18.58;69.49;100452.72;4841174;29;20069;-80
2021/06/22 01:32:01;;;;;;;13.07;6.72;;;;;;;18.42;69.68;100427.78;4854467;29;20430;-81
2021/06/22 01:34:30;;;;;;;21.00;7.03;;;;;;;18.57;69.75;100450.13;4861619;29;20139;-80
2021/06/22 01:36:59;;;;;;;17.98;7.32;;;;;;;18.61;69.92;100457.00;4860197;29;20060;-77
2021/06/22 01:39:30;;;;;;;18.88;7.45;;;;;;;18.63;69.90;100461.34;4858435;29;20045;-82
2021/06/22 01:42:02;;;;;;;17.30;7.07;;;;;;;18.60;69.69;100443.00;4844156;29;20463;-80
2021/06/22 01:44:32;;;;;;;10.55;6.75;;;;;;;18.61;69.67;100450.00;4828624;29;20184;-80
2021/06/22 01:46:58;;;;;;;10.48;7.10;;;;;;;18.73;69.67;100463.66;4813882;29;20371;-81
2021/06/22 01:49:25;;;;;;;9.07;6.75;;;;;;;18.66;69.60;100448.03;4828430;29;20042;-82
2021/06/22 01:51:51;;;;;;;10.30;6.45;;;;;;;18.70;69.76;100453.22;4859063;29;20051;-83
2021/06/22 01:54:20;;;;;;;8.98;6.93;;;;;;;18.61;69.53;100434.19;4847277;29;20096;-82
2021/06/22 01:56:52;;;;;;;10.07;7.25;;;;;;;18.65;69.53;100441.03;4847399;29;20055;-82
2021/06/22 01:59:22;;;;;;;12.02;7.05;;;;;;;18.82;69.84;100464.22;4833292;29;20056;-82
2021/06/22 02:02:01;;;;;;;9.32;6.50;;;;;;;18.71;69.81;100436.50;4862097;29;20068;-79
2021/06/22 02:04:37;;;;;;;12.57;7.18;;;;;;;18.72;69.91;100428.56;4853480;29;20049;-78
2021/06/22 02:07:09;;;;;;;;;;;;;;;19.03;69.80;100479.44;4848526;29;20389;-84
2021/06/22 02:09:40;;;;;;;14.10;6.85;;;;;;;18.97;69.89;100459.41;4864401;29;19920;-82
2021/06/22 02:12:10;;;;;;;14.15;6.60;;;;;;;18.91;69.77;100430.56;4832963;29;20053;-78
2021/06/22 02:14:38;;;;;;;10.05;6.60;;;;;;;18.99;69.96;100433.84;4818552;29;20049;-80
2021/06/22 02:17:04;;;;;;;10.20;6.82;;;;;;;19.29;69.80;100470.63;4847353;29;20072;-81
2021/06/22 02:19:30;;;;;;;14.50;7.30;;;;;;;19.32;69.97;100467.88;4847581;29;20076;-80
2021/06/22 02:21:59;;;;;;;8.75;6.40;;;;;;;19.23;70.07;100434.78;4865574;29;20125;-83
2021/06/22 02:24:40;;;;;;;13.82;6.57;;;;;;;19.60;69.74;100481.88;4868379;29;20046;-81
2021/06/22 02:27:06;;;;;;;9.10;6.50;;;;;;;19.72;69.56;100484.09;4856360;29;20093;-78
2021/06/22 02:29:32;;;;;;;13.63;7.03;;;;;;;19.62;69.39;100451.03;4849479;29;20561;-84
2021/06/22 02:31:59;;;;;;;8.60;6.35;;;;;;;19.91;69.39;100481.66;4854662;29;20048;-80
2021/06/22 02:34:26;;;;;;;16.00;7.50;;;;;;;20.07;68.95;100481.94;4858267;29;20118;-80
2021/06/22 02:36:52;;;;;;;22.45;10.18;;;;;;;20.17;68.55;100483.34;4884044;29;20053;-80
2021/06/22 02:39:24;;;;;;;;;;;;;;;20.30;68.56;100483.69;4885614;29;20041;-79
2021/06/22 02:41:53;;;;;;;16.20;8.18;;;;;;;20.44;68.51;100483.16;4884891;29;20021;-79
2021/06/22 02:44:21;;;;;;;16.30;8.00;;;;;;;20.36;67.99;100450.91;4884470;29;20049;-79
2021/06/22 02:46:48;;;;;;;22.42;8.70;;;;;;;20.58;67.86;100455.34;4868366;29;20017;-80
2021/06/22 02:49:14;;;;;;;21.58;8.30;;;;;;;20.64;67.84;100447.16;4884767;29;20041;-80
2021/06/22 02:51:42;;;;;;;23.90;7.90;;;;;;;20.97;67.62;100481.13;4867433;29;20037;-79
2021/06/22 02:54:09;;;;;;;25.33;9.13;;;;;;;21.10;67.39;100472.66;4866711;29;20049;-77
2021/06/22 02:56:35;;;;;;;24.05;9.55;;;;;;;21.17;67.13;100461.75;4868776;29;20053;-81
2021/06/22 02:59:03;;;;;;;20.60;9.30;;;;;;;21.45;66.81;100483.53;4835604;29;20041;-79
2021/06/22 03:01:30;;;;;;;16.08;8.25;;;;;;;21.39;66.46;100455.53;4867626;29;20057;-83
2021/06/22 03:03:57;;;;;;;20.67;8.27;;;;;;;21.69;66.43;100489.56;4849735;29;20037;-79
2021/06/22 03:06:24;;;;;;;17.70;8.50;;;;;;;21.85;65.79;100484.44;4848894;29;20577;-80
2021/06/22 03:09:08;;;;;;;19.10;8.60;;;;;;;21.92;65.84;100458.53;4836878;29;20052;-80
2021/06/22 03:11:38;;;;;;;18.88;8.23;;;;;;;22.21;65.25;100482.81;4866307;29;20073;-82
2021/06/22 03:14:07;;;;;;;19.08;9.02;;;;;;;22.14;64.92;100445.16;4838265;29;20053;-78
2021/06/22 03:16:52;;;;;;;22.63;8.68;;;;;;;22.33;64.68;100450.41;4867201;29;20049;-81
2021/06/22 03:19:20;;;;;;;12.98;7.75;;;;;;;22.63;64.65;100472.91;4846416;29;20061;-80
2021/06/22 03:21:52;;;;;;;16.73;7.70;;;;;;;22.68;64.29;100453.19;4847400;29;20049;-80
2021/06/22 03:24:21;;;;;;;18.17;8.38;;;;;;;22.96;63.31;100480.97;4848620;29;20105;-80
2021/06/22 03:26:48;;;;;;;14.38;8.40;;;;;;;23.12;63.29;100475.78;4868101;29;20041;-78
2021/06/22 03:29:15;;;;;;;14.40;7.57;;;;;;;23.29;62.79;100487.34;4838557;29;20068;-81
2021/06/22 03:31:41;;;;;;;18.00;8.77;;;;;;;23.41;62.60;100470.81;4871162;29;20057;-79
2021/06/22 03:34:07;;;;;;;15.13;7.65;;;;;;;23.45;62.12;100451.13;4839439;29;20045;-80
2021/06/22 03:36:33;;;;;;;14.50;7.50;;;;;;;23.69;61.83;100474.66;4869320;29;20052;-81
2021/06/22 03:39:00;;;;;;;15.07;7.57;;;;;;;23.70;61.63;100459.56;4866277;29;20117;-82
2021/06/22 03:41:26;;;;;;;16.50;7.95;;;;;;;23.71;61.32;100450.66;4832023;29;20049;-83
2021/06/22 03:43:52;;;;;;;15.65;7.50;;;;;;;23.95;61.01;100458.25;4862312;29;20049;-82
2021/06/22 03:46:19;;;;;;;16.08;7.88;;;;;;;24.12;60.44;100460.88;4830412;29;20426;-81
2021/06/22 03:48:46;;;;;;;14.25;7.55;;;;;;;24.19;60.13;100458.72;4863311;29;20061;-82
2021/06/22 03:51:12;;;;;;;14.55;8.13;;;;;;;24.42;59.87;100473.41;4831550;29;20509;-81
2021/06/22 03:53:42;;;;;;;13.70;7.75;;;;;;;24.48;58.94;100467.75;4832851;29;20052;-82
2021/06/22 03:56:10;;;;;;;13.32;7.95;;;;;;;24.50;59.19;100439.22;4865953;29;20128;-83
2021/06/22 03:58:51;;;;;;;15.38;9.48;;;;;;;24.64;58.79;100437.59;4860986;29;20124;-83
2021/06/22 04:01:17;;;;;;;14.90;8.23;;;;;;;24.95;58.31;100452.66;4852057;29;20065;-81
2021/06/22 04:03:43;;;;;;;15.85;8.13;;;;;;;25.24;57.67;100473.16;4842301;29;20052;-82
2021/06/22 04:06:31;;;;;;;18.50;9.88;;;;;;;25.29;57.19;100460.44;4841925;29;20045;-81
2021/06/22 04:09:03;;;;;;;18.40;9.73;;;;;;;25.55;56.83;100482.00;4832326;29;20053;-84
2021/06/22 04:11:29;;;;;;;19.00;9.57;;;;;;;25.68;56.57;100474.13;4832200;29;20071;-80
2021/06/22 04:13:57;;;;;;;21.92;9.32;;;;;;;25.84;56.30;100474.88;4861552;29;20093;-81
2021/06/22 04:16:27;;;;;;;15.85;9.50;;;;;;;25.93;56.06;100451.25;4830432;29;20041;-80
2021/06/22 04:18:53;;;;;;;19.67;9.70;;;;;;;26.17;55.31;100459.53;4845150;29;20098;-78
2021/06/22 04:21:24;;;;;;;17.92;9.63;;;;;;;26.40;55.25;100471.38;4861964;29;20070;-80
2021/06/22 04:23:53;;;;;;;22.48;9.60;;;;;;;26.53;55.15;100457.25;4864296;29;20113;-84
2021/06/22 04:26:19;;;;;;;14.77;8.77;;;;;;;26.79;54.39;100468.00;4846994;29;20096;-82
2021/06/22 04:28:46;;;;;;;15.02;7.75;;;;;;;26.68;54.11;100426.88;4864458;29;20048;-82
2021/06/22 04:31:13;;;;;;;19.67;8.73;;;;;;;27.13;53.84;100468.44;4862578;29;20049;-79
2021/06/22 04:33:39;;;;;;;12.15;6.97;;;;;;;27.16;53.05;100461.03;4847677;29;20049;-82
2021/06/22 04:36:06;;;;;;;8.48;6.50;;;;;;;27.25;53.08;100456.03;4852591;29;20056;-81
2021/06/22 04:38:41;;;;;;;15.77;6.22;;;;;;;27.46;52.29;100472.41;4874278;29;20078;-80
2021/06/22 04:41:09;;;;;;;15.98;6.78;;;;;;;27.67;52.00;100470.06;4844911;29;20218;-82
2021/06/22 04:43:37;;;;;;;13.93;6.80;;;;;;;27.51;52.05;100408.84;4870516;29;20050;-80
2021/06/22 04:46:06;;;;;;;10.95;6.50;;;;;;;27.92;51.31;100444.28;4868729;29;20113;-81
2021/06/22 04:48:32;;;;;;;12.02;6.75;;;;;;;28.30;51.23;100469.25;4848591;29;20042;-81
2021/06/22 04:50:58;;;;;;;10.80;5.20;;;;;;;28.28;50.42;100428.38;4845461;29;20052;-82
2021/06/22 04:53:26;;;;;;;10.07;4.93;;;;;;;28.66;50.40;100463.00;4833336;29;20049;-85
2021/06/22 04:55:52;;;;;;;11.00;4.45;;;;;;;28.72;49.71;100448.28;4830359;29;20044;-85
2021/06/22 04:58:19;;;;;;;11.35;4.32;;;;;;;28.91;49.05;100461.16;4861921;29;20084;-81
2021/06/22 05:00:44;;;;;;;6.05;3.78;;;;;;;28.93;48.39;100447.66;4832934;29;20060;-80
2021/06/22 05:03:10;;;;;;;7.80;3.33;;;;;;;28.92;48.39;100444.09;4873154;29;20049;-84
2021/06/22 05:05:36;;;;;;;6.03;3.15;;;;;;;29.06;47.83;100461.81;4819809;29;20140;-81
2021/06/22 05:08:02;;;;;;;4.05;3.15;;;;;;;29.00;46.92;100440.88;4846493;29;20094;-86
2021/06/22 05:10:28;;;;;;;6.22;3.15;;;;;;;29.12;45.95;100439.91;4862494;29;20080;-83
2021/06/22 05:12:54;;;;;;;5.50;2.90;;;;;;;29.30;46.00;100451.03;4836956;29;20502;-80
2021/06/22 05:15:20;;;;;;;5.18;3.25;;;;;;;29.56;45.46;100472.31;4823157;29;20168;-80
2021/06/22 05:17:46;;;;;;;4.60;3.13;;;;;;;29.57;44.93;100457.06;4837512;29;20045;-81
2021/06/22 05:20:12;;;;;;;5.80;2.90;;;;;;;29.83;44.52;100464.84;4865301;29;20048;-84
2021/06/22 05:22:38;;;;;;;4.65;3.47;;;;;;;29.82;43.95;100450.59;4834842;29;20165;-79
2021/06/22 05:25:06;;;;;;;8.18;3.15;;;;;;;29.91;43.66;100471.31;4866751;29;20033;-81
2021/06/22 05:27:33;;;;;;;6.97;3.60;;;;;;;30.16;43.38;100468.50;4867023;29;20046;-82
2021/06/22 05:29:59;;;;;;;4.93;3.30;;;;;;;30.31;42.59;100455.66;4865695;29;20140;-81
2021/06/22 05:32:25;;;;;;;8.93;3.50;;;;;;;30.43;42.63;100456.47;4849695;29;20504;-84
2021/06/22 05:34:50;;;;;;;7.10;3.60;;;;;;;30.46;42.19;100442.81;4866191;29;20072;-81
2021/06/22 05:37:19;;;;;;;5.10;3.22;;;;;;;30.68;41.93;100463.38;4850911;29;20097;-84
2021/06/22 05:39:47;;;;;;;4.97;3.50;;;;;;;30.79;41.80;100457.09;4864910;29;20053;-82
2021/06/22 05:42:13;;;;;;;10.32;3.20;;;;;;;30.86;41.38;100444.88;4832097;29;20049;-82
2021/06/22 05:44:39;;;;;;;9.32;3.42;;;;;;;31.14;41.22;100469.41;4847433;29;20185;-79
2021/06/22 05:47:05;;;;;;;6.32;3.20;;;;;;;31.21;40.41;100434.81;4832162;29;20048;-82
2021/06/22 05:49:31;;;;;;;4.25;2.92;;;;;;;31.73;40.50;100468.91;4832328;29;20041;-84
2021/06/22 05:51:57;;;;;;;5.82;3.45;;;;;;;32.15;39.81;100471.47;4832438;29;20041;-79
2021/06/22 05:54:22;;;;;;;6.47;3.30;;;;;;;32.67;39.23;100428.16;4849305;29;20050;-81
2021/06/22 05:56:49;;;;;;;7.13;3.13;;;;;;;34.01;37.69;100456.91;4835374;29;20041;-81
2021/06/22 05:59:18;;;;;;;6.60;3.00;;;;;;;35.48;36.40;100429.66;4856658;29;20053;-81
2021/06/22 06:01:53;;;;;;;4.72;2.92;;;;;;;36.84;32.84;100404.25;4833535;29;20042;-81
2021/06/22 06:04:22;;;;;;;6.80;2.85;;;;;;;38.27;31.04;100416.09;4849120;29;20049;-83
2021/06/22 06:06:48;;;;;;;6.85;3.17;;;;;;;39.70;29.60;100403.69;4872654;29;20133;-80
2021/06/22 06:09:15;;;;;;;2.97;2.60;;;;;;;40.83;27.48;100377.78;4822049;29;20132;-80
2021/06/22 06:11:51;;;;;;;5.55;3.10;;;;;;;42.01;25.58;100436.97;4867558;29;20618;-80
2021/06/22 06:14:18;;;;;;;7.03;3.13;;;;;;;42.91;24.41;100430.34;4867786;29;20069;-81
2021/06/22 06:16:48;;;;;;;8.35;3.30;;;;;;;43.32;23.36;100420.19;4836849;29;20113;-81
2021/06/22 06:19:18;;;;;;;9.55;2.97;;;;;;;43.99;22.70;100410.81;4838194;29;20109;-82
2021/06/22 06:21:45;;;;;;;8.27;3.00;;;;;;;44.98;21.50;100433.06;4868376;29;20041;-81
2021/06/22 06:24:11;;;;;;;7.22;3.10;;;;;;;45.54;21.12;100415.78;4867499;29;20057;-81
2021/06/22 06:26:58;;;;;;;7.57;2.95;;;;;;;46.24;20.40;100424.53;4813674;29;20068;-81
2021/06/22 06:29:47;;;;;;;6.35;2.95;;;;;;;46.90;19.67;100430.03;4849451;29;20057;-79
2021/06/22 06:32:13;;;;;;;6.85;2.58;;;;;;;47.43;18.98;100408.03;4876840;29;20046;-81
2021/06/22 06:34:39;;;;;;;4.88;2.38;;;;;;;48.14;18.17;100421.53;4863574;29;20423;-81
2021/06/22 06:37:08;;;;;;;6.75;2.58;;;;;;;48.94;17.04;100437.16;4853302;29;20059;-83
2021/06/22 06:39:35;;;;;;;7.47;2.87;;;;;;;49.19;16.60;100439.47;4838988;29;20042;-82
2021/06/22 06:42:01;;;;;;;5.82;2.90;;;;;;;49.59;16.41;100434.69;4866454;29;20072;-80
2021/06/22 06:44:27;;;;;;;8.65;3.70;;;;;;;49.07;16.39;100395.41;4861168;29;20046;-83
2021/06/22 06:46:53;;;;;;;3.35;2.58;;;;;;;49.64;15.66;100407.13;4866695;29;20041;-83
2021/06/22 06:49:19;;;;;;;4.43;2.63;;;;;;;50.44;15.35;100428.63;4868355;29;20053;-85
2021/06/22 06:51:46;;;;;;;5.80;3.90;;;;;;;50.27;15.24;100417.69;4882892;29;20040;-81
2021/06/22 06:54:12;;;;;;;7.65;3.80;;;;;;;50.90;14.94;100430.06;4854468;29;20428;-83
2021/06/22 06:56:39;;;;;;;6.55;4.05;;;;;;;50.93;15.24;100424.81;4836026;29;20136;-81
2021/06/22 06:59:05;;;;;;;6.85;3.60;;;;;;;51.35;15.16;100430.53;4821764;29;20077;-80
2021/06/22 07:01:32;;;;;;;7.32;3.78;;;;;;;50.63;15.08;100434.59;4866592;29;20037;-86
2021/06/22 07:03:59;;;;;;;4.82;3.67;;;;;;;50.28;15.54;100408.28;4868671;29;20049;-82
2021/06/22 07:06:25;;;;;;;6.30;3.20;;;;;;;50.47;15.16;100399.56;4865630;29;20042;-82
2021/06/22 07:08:51;;;;;;;5.47;3.08;;;;;;;51.28;14.45;100391.19;4849476;29;20066;-81
2021/06/22 07:11:21;;;;;;;5.45;3.15;;;;;;;52.01;13.55;100426.28;4864243;29;20547;-80
2021/06/22 07:13:47;;;;;;;6.88;3.00;;;;;;;51.97;13.54;100414.91;4814149;29;20104;-82
2021/06/22 07:16:13;;;;;;;11.20;3.33;;;;;;;52.09;13.59;100417.41;4838275;29;20485;-82
2021/06/22 07:18:39;;;;;;;4.25;2.80;;;;;;;51.79;13.35;100419.03;4838411;29;20064;-81
2021/06/22 07:21:05;;;;;;;6.40;2.95;;;;;;;51.98;13.09;100426.81;4829035;29;20144;-80
2021/06/22 07:23:31;;;;;;;3.83;2.47;;;;;;;51.05;13.03;100409.94;4847335;29;20444;-80
2021/06/22 07:25:58;;;;;;;5.75;2.60;;;;;;;50.78;13.22;100380.41;4862656;29;20616;-80
2021/06/22 07:28:24;;;;;;;7.85;2.80;;;;;;;50.95;13.01;100413.47;4863546;29;20082;-81
2021/06/22 07:30:49;;;;;;;4.70;2.45;;;;;;;50.98;13.41;100420.41;4847492;29;20477;-81
2021/06/22 07:33:16;;;;;;;5.68;2.83;;;;;;;51.33;12.48;100405.91;4846432;29;20471;-81
2021/06/22 07:35:45;;;;;;;6.45;2.65;;;;;;;50.74;12.84;100418.03;4860009;29;20079;-81
2021/06/22 07:38:12;;;;;;;4.32;3.03;;;;;;;50.29;12.82;100417.44;4829300;29;20079;-78
2021/06/22 07:40:38;;;;;;;8.02;2.42;;;;;;;50.09;12.97;100407.88;4828585;29;20506;-77
2021/06/22 07:43:04;;;;;;;6.65;2.63;;;;;;;50.25;12.77;100399.72;4844976;29;20101;-78
2021/06/22 07:45:30;;;;;;;7.35;2.47;;;;;;;50.09;13.60;100418.06;4860092;29;20053;-77
2021/06/22 07:47:56;;;;;;;7.18;2.78;;;;;;;50.52;12.99;100407.94;4843458;29;20048;-77
2021/06/22 07:50:24;;;;;;;5.25;3.00;;;;;;;51.98;12.57;100421.28;4860227;29;20042;-77
2021/06/22 07:52:50;;;;;;;8.40;2.40;;;;;;;51.84;12.32;100415.44;4848212;29;20426;-77
2021/06/22 07:55:17;;;;;;;6.65;2.38;;;;;;;50.99;12.42;100413.75;4859998;29;20094;-76
2021/06/22 07:57:50;;;;;;;5.10;2.90;;;;;;;50.37;12.65;100418.88;4828248;29;20049;-76
2021/06/22 08:00:33;;;;;;;3.58;2.50;;;;;;;50.74;12.82;100432.72;4828673;29;20052;-77
2021/06/22 08:03:02;;;;;;;3.38;2.80;;;;;;;52.00;12.20;100426.56;4829171;29;20048;-76
2021/06/22 08:05:28;;;;;;;4.30;2.40;;;;;;;52.20;11.25;100412.69;4831751;29;20041;-77
2021/06/22 08:07:54;;;;;;;7.07;3.00;;;;;;;52.01;11.54;100423.50;4861041;29;20109;-78
2021/06/22 08:10:20;;;;;;;6.15;2.40;;;;;;;51.78;11.95;100420.13;4861759;29;20466;-78
2021/06/22 08:12:46;;;;;;;3.50;2.30;;;;;;;51.47;11.83;100428.38;4837122;29;20056;-78
2021/06/22 08:15:12;;;;;;;7.57;2.58;;;;;;;51.21;11.86;100422.75;4828888;29;20140;-78
2021/06/22 08:17:38;;;;;;;6.47;2.85;;;;;;;50.92;11.71;100420.38;4844500;29;20051;-78
2021/06/22 08:20:05;;;;;;;7.38;2.58;;;;;;;50.26;11.64;100429.03;4860163;29;20045;-77
2021/06/22 08:22:31;;;;;;;6.57;2.60;;;;;;;50.10;12.53;100428.84;4843919;29;20045;-77
2021/06/22 08:24:57;;;;;;;7.13;2.55;;;;;;;50.37;12.28;100422.47;4860477;29;20046;-77
2021/06/22 08:27:24;;;;;;;8.13;2.45;;;;;;;50.55;11.97;100425.94;4827707;29;20167;-79
2021/06/22 08:29:49;;;;;;;6.88;2.80;;;;;;;50.38;12.13;100431.63;4859616;29;20068;-78
2021/06/22 08:32:15;;;;;;;5.68;2.58;;;;;;;49.57;12.33;100417.53;4859264;29;20215;-79
2021/06/22 08:34:41;;;;;;;4.03;2.20;;;;;;;50.00;12.37;100410.25;4859308;29;20351;-81
2021/06/22 08:37:07;;;;;;;3.55;2.30;;;;;;;50.82;11.25;100420.31;4859675;29;20049;-77
2021/06/22 08:39:36;;;;;;;7.35;2.72;;;;;;;51.04;11.77;100422.09;4859455;29;20570;-79
2021/06/22 08:42:03;;;;;;;4.82;2.40;;;;;;;51.77;11.50;100420.41;4842516;29;20049;-78
2021/06/22 08:44:30;;;;;;;5.75;2.78;;;;;;;52.49;11.11;100427.94;4857922;29;20052;-77
2021/06/22 08:46:59;;;;;;;8.77;3.10;;;;;;;52.73;10.21;100419.88;4859339;29;20068;-79
2021/06/22 08:49:26;;;;;;;6.85;2.92;;;;;;;52.28;11.28;100421.59;4843558;29;20250;-78
2021/06/22 08:51:52;;;;;;;7.35;2.92;;;;;;;52.63;10.61;100411.56;4844597;29;20049;-76
2021/06/22 08:54:22;;;;;;;5.82;2.90;;;;;;;53.30;10.31;100401.06;4859059;29;20467;-79
2021/06/22 08:56:48;;;;;;;7.28;3.00;;;;;;;53.49;10.15;100407.91;4828121;29;20073;-77
2021/06/22 08:59:14;;;;;;;3.83;2.92;;;;;;;53.28;10.87;100414.44;4843619;29;20124;-80
2021/06/22 09:01:40;;;;;;;6.20;3.08;;;;;;;54.04;9.97;100418.94;4859409;29;20147;-77
2021/06/22 09:04:06;;;;;;;10.43;3.45;;;;;;;53.40;10.84;100414.09;4843094;29;20053;-77
2021/06/22 09:06:40;;;;;;;8.45;3.28;;;;;;;52.08;11.35;100410.22;4859384;29;20041;-78
2021/06/22 09:09:14;;;;;;;9.07;2.80;;;;;;;51.72;11.19;100404.63;4842672;29;20097;-78
2021/06/22 09:11:39;;;;;;;9.95;3.08;;;;;;;50.53;12.19;100404.06;4860181;29;20078;-78
2021/06/22 09:14:07;;;;;;;7.80;3.78;;;;;;;50.53;12.62;100393.00;4843245;29;20101;-79
2021/06/22 09:16:34;;;;;;;5.05;2.70;;;;;;;51.18;11.41;100403.06;4861040;29;20421;-79
2021/06/22 09:19:02;;;;;;;8.98;3.08;;;;;;;51.98;11.92;100412.97;4861830;29;20053;-78
2021/06/22 09:21:28;;;;;;;10.13;3.37;;;;;;;52.53;10.88;100392.97;4860386;29;20046;-79
2021/06/22 09:23:56;;;;;;;9.07;3.15;;;;;;;53.45;10.83;100397.34;4843680;29;20052;-77
2021/06/22 09:26:30;;;;;;;6.65;3.45;;;;;;;54.07;10.52;100395.28;4842569;29;20109;-79
2021/06/22 09:29:11;;;;;;;11.77;3.40;;;;;;;54.01;10.32;100400.91;4843458;29;20044;-80
2021/06/22 09:31:51;;;;;;;7.07;3.10;;;;;;;54.01;10.54;100397.28;4843067;29;20133;-77
2021/06/22 09:34:19;;;;;;;6.63;3.28;;;;;;;53.23;10.30;100392.19;4860337;29;20045;-77
2021/06/22 09:36:53;;;;;;;7.03;3.67;;;;;;;51.45;11.58;100402.03;4858401;29;20068;-78
2021/06/22 09:39:21;;;;;;;6.85;3.25;;;;;;;51.32;11.60;100386.75;4842733;29;20072;-78
2021/06/22 09:41:49;;;;;;;8.95;3.20;;;;;;;51.48;11.32;100376.53;4853276;29;20053;-78
2021/06/22 09:44:16;;;;;;;5.70;2.85;;;;;;;51.79;11.98;100390.50;4857722;29;20057;-76
2021/06/22 09:46:48;;;;;;;9.15;3.42;;;;;;;52.25;11.49;100385.00;4859647;29;20072;-78
2021/06/22 09:49:20;;;;;;;11.68;3.28;;;;;;;53.39;10.67;100389.34;4855977;29;20481;-78
2021/06/22 09:54:21;;;;;;;11.45;3.28;;;;;;;52.54;10.71;100383.53;4826405;29;20049;-78
2021/06/22 09:57:11;;;;;;;6.80;2.97;;;;;;;51.99;11.21;100384.13;4856200;29;20042;-76
2021/06/22 10:00:04;;;;;;;7.50;3.22;;;;;;;51.23;11.92;100375.38;4844413;29;20093;-75
2021/06/22 10:02:53;;;;;;;9.30;3.42;;;;;;;51.48;11.51;100391.25;4857494;29;20128;-75
2021/06/22 10:05:21;;;;;;;9.13;3.33;;;;;;;50.90;11.74;100396.84;4823597;29;20128;-78
2021/06/22 10:08:06;;;;;;;11.25;3.10;;;;;;;50.25;12.07;100381.16;4851941;29;20106;-76
2021/06/22 10:10:41;;;;;;;10.23;3.25;;;;;;;51.07;12.05;100374.50;4827143;29;20088;-78
2021/06/22 10:13:09;;;;;;;8.63;3.55;;;;;;;52.38;11.23;100366.94;4851156;29;20140;-78
2021/06/22 10:15:35;;;;;;;13.23;3.67;;;;;;;51.85;10.79;100383.00;4815444;29;20550;-76
2021/06/22 10:18:01;;;;;;;11.68;2.97;;;;;;;50.07;12.06;100382.41;4842917;29;20139;-78
2021/06/22 10:20:27;;;;;;;7.63;3.35;;;;;;;50.56;11.95;100370.34;4797677;29;20102;-75
2021/06/22 10:22:54;;;;;;;9.77;3.20;;;;;;;51.57;11.51;100365.78;4827424;29;20042;-76
2021/06/22 10:25:20;;;;;;;8.23;3.33;;;;;;;51.36;10.67;100360.19;4825394;29;20050;-76
2021/06/22 10:27:50;;;;;;;12.18;3.30;;;;;;;49.33;11.75;100359.78;4842959;29;20098;-76
2021/06/22 10:30:19;;;;;;;9.07;3.15;;;;;;;47.90;13.09;100371.19;4844113;29;20046;-76
2021/06/22 10:32:45;;;;;;;;;;;;;;;45.78;14.78;100364.56;4825952;29;20110;-76
2021/06/22 10:35:15;;;;;;;9.27;3.35;;;;;;;43.32;16.61;100370.94;4824711;29;20026;-78
2021/06/22 10:37:42;;;;;;;8.55;3.30;;;;;;;42.17;17.22;100370.19;4843082;29;20411;-76
2021/06/22 10:40:13;;;;;;;9.82;3.35;;;;;;;41.63;17.58;100361.84;4842699;29;20086;-76
2021/06/22 10:43:09;;;;;;;12.88;3.42;;;;;;;41.31;18.14;100364.22;4823286;29;20069;-77
2021/06/22 10:45:54;;;;;;;10.18;3.13;;;;;;;40.56;18.69;100358.47;4825427;29;20054;-77
2021/06/22 10:48:20;;;;;;;8.13;3.30;;;;;;;39.69;19.78;100355.72;4795161;29;20045;-76
2021/06/22 10:50:46;;;;;;;10.68;3.22;;;;;;;39.35;20.75;100365.38;4810031;29;20425;-75
2021/06/22 10:53:12;;;;;;;10.98;3.35;;;;;;;38.92;20.83;100372.28;4808704;29;20049;-76
2021/06/22 10:55:42;;;;;;;9.30;3.30;;;;;;;38.35;21.68;100369.00;4794807;29;20042;-77
2021/06/22 10:58:10;;;;;;;8.45;3.13;;;;;;;38.02;22.43;100363.84;4842157;29;20045;-76
2021/06/22 11:00:39;;;;;;;10.88;3.13;;;;;;;37.61;22.81;100367.63;4843458;29;20064;-77
2021/06/22 11:03:19;;;;;;;7.50;3.42;;;;;;;37.36;23.15;100364.16;4826765;29;20538;-77
2021/06/22 11:05:46;;;;;;;7.03;3.10;;;;;;;37.22;22.92;100347.56;4843449;29;20137;-75
2021/06/22 11:08:12;;;;;;;8.30;2.92;;;;;;;37.42;23.26;100360.72;4827283;29;20079;-78
2021/06/22 11:10:47;;;;;;;11.30;2.85;;;;;;;37.42;23.36;100358.00;4841984;29;20049;-77
2021/06/22 11:13:34;;;;;;;15.23;3.70;;;;;;;37.45;23.47;100360.41;4820753;29;20053;-76
2021/06/22 11:16:06;;;;;;;10.10;2.90;;;;;;;37.15;23.63;100354.75;4827498;29;20510;-77
2021/06/22 11:18:50;;;;;;;11.52;3.00;;;;;;;36.78;24.13;100354.28;4826209;29;20188;-76
2021/06/22 11:21:36;;;;;;;9.52;2.80;;;;;;;36.81;24.25;100349.56;4824985;29;20046;-76
2021/06/22 11:24:07;;;;;;;18.08;3.58;;;;;;;36.74;24.01;100349.41;4827179;29;20525;-76
2021/06/22 11:26:45;;;;;;;14.57;3.40;;;;;;;36.24;25.06;100329.56;4834841;29;20402;-76
2021/06/22 11:29:17;;;;;;;13.73;3.40;;;;;;;35.82;25.40;100345.75;4846378;29;20073;-77
2021/06/22 11:31:46;;;;;;;11.85;3.10;;;;;;;35.44;26.21;100346.09;4829886;29;20037;-77